Time;durP1;ratioP1;P1;durP2;ratioP2;P2;SDS_P1;SDS_P2;PMS_P1;PMS_P2;Temp;Humidity;BMP_temperature;BMP_pressure;BME280_temperature;BME280_humidity;BME280_pressure;Samples;Min_cycle;Max_cycle;Signal;HPM_P1;HPM_P2
2023/05/16 19:21:02;;;;;;;19.75;7.03;;;;;;;;;;5081698;27;20592;-63
2023/05/16 19:23:29;;;;;;;19.15;7.97;;;;;;;;;;5031989;28;20184;-53
2023/05/16 19:25:55;;;;;;;15.60;6.68;;;;;;;;;;5032690;28;20190;-57
2023/05/16 19:28:23;;;;;;;19.30;6.47;;;;;;;;;;5046214;28;20823;-55
2023/05/16 19:30:49;;;;;;;15.95;6.97;;;;;;;;;;5047663;28;20213;-55
2023/05/16 19:33:15;;;;;;;13.60;6.85;;;;;;;;;;5027412;28;20561;-60
2023/05/16 19:35:41;;;;;;;11.85;6.05;;;;;;;;;;5046225;28;20187;-52
2023/05/16 19:38:07;;;;;;;17.80;6.20;;;;;;;;;;5031401;28;20180;-50
2023/05/16 19:40:33;;;;;;;14.15;5.82;;;;;;;;;;5025486;28;20321;-50
2023/05/16 19:42:59;;;;;;;14.27;6.22;;;;;;;;;;5029295;28;20211;-52
2023/05/16 19:45:25;;;;;;;13.40;5.50;;;;;;;;;;5029525;28;20230;-54
2023/05/16 19:47:51;;;;;;;11.93;5.50;;;;;;;;;;5031608;28;20534;-51
2023/05/16 19:50:18;;;;;;;13.50;5.43;;;;;;;;;;5048909;28;20198;-50
2023/05/16 19:52:44;;;;;;;11.40;5.40;;;;;;;;;;5031064;28;20198;-50
2023/05/16 19:55:10;;;;;;;8.85;4.85;;;;;;;;;;5044605;28;20180;-48
2023/05/16 19:57:36;;;;;;;14.25;5.10;;;;;;;;;;5031230;28;20172;-51
2023/05/16 20:00:04;;;;;;;8.48;4.18;;;;;;;;;;5030824;28;20204;-49
2023/05/16 20:02:30;;;;;;;10.32;4.32;;;;;;;;;;5029032;28;20190;-50
2023/05/16 20:04:56;;;;;;;9.63;4.32;;;;;;;;;;5031300;28;20460;-50
2023/05/16 20:07:22;;;;;;;14.05;5.25;;;;;;;;;;5044512;28;20196;-50
2023/05/16 20:09:49;;;;;;;9.32;4.05;;;;;;;;;;5046651;28;20184;-50
2023/05/16 20:12:16;;;;;;;8.32;4.00;;;;;;;;;;5042547;28;20479;-53
2023/05/16 20:14:42;;;;;;;11.02;4.65;;;;;;;;;;5045260;28;20270;-49
2023/05/16 20:17:08;;;;;;;10.82;4.32;;;;;;;;;;5028139;28;20275;-52
2023/05/16 20:19:36;;;;;;;12.35;3.72;;;;;;;;;;5048946;28;20459;-53
2023/05/16 20:22:02;;;;;;;8.43;3.63;;;;;;;;;;5035870;28;20190;-53
2023/05/16 20:24:28;;;;;;;9.55;4.38;;;;;;;;;;5047317;28;20180;-53
2023/05/16 20:26:53;;;;;;;10.70;4.38;;;;;;;;;;5044457;28;20207;-53
2023/05/16 20:29:19;;;;;;;9.10;3.67;;;;;;;;;;5030884;28;20184;-53
2023/05/16 20:31:45;;;;;;;10.80;3.83;;;;;;;;;;5020589;28;20243;-53
2023/05/16 20:34:11;;;;;;;6.30;3.40;;;;;;;;;;5014687;28;20179;-53
2023/05/16 20:36:37;;;;;;;5.60;3.22;;;;;;;;;;5014183;28;20459;-52
2023/05/16 20:39:05;;;;;;;10.73;3.35;;;;;;;;;;5016738;28;20266;-52
2023/05/16 20:41:32;;;;;;;9.45;3.33;;;;;;;;;;5021863;28;20260;-52
2023/05/16 20:43:58;;;;;;;6.90;3.38;;;;;;;;;;5011083;28;20258;-52
2023/05/16 20:46:24;;;;;;;8.05;3.85;;;;;;;;;;5023421;28;20189;-52
2023/05/16 20:48:50;;;;;;;11.02;3.72;;;;;;;;;;5040187;28;20183;-52
2023/05/16 20:51:16;;;;;;;8.90;3.30;;;;;;;;;;5014400;28;20260;-52
2023/05/16 20:53:42;;;;;;;12.80;3.72;;;;;;;;;;5031893;28;20180;-52
2023/05/16 20:56:07;;;;;;;8.45;3.25;;;;;;;;;;5015873;28;20185;-52
2023/05/16 20:58:34;;;;;;;9.55;3.28;;;;;;;;;;5030074;28;20237;-52
2023/05/16 21:01:00;;;;;;;8.23;3.20;;;;;;;;;;5017566;28;20266;-52
2023/05/16 21:03:26;;;;;;;7.35;2.60;;;;;;;;;;5010623;28;20181;-52
2023/05/16 21:05:52;;;;;;;8.27;2.92;;;;;;;;;;5032668;28;20200;-52
2023/05/16 21:08:18;;;;;;;6.30;3.03;;;;;;;;;;5012032;28;20202;-53
2023/05/16 21:10:44;;;;;;;10.13;3.05;;;;;;;;;;5025506;28;20189;-53
2023/05/16 21:13:10;;;;;;;6.45;3.13;;;;;;;;;;5011131;28;20192;-53
2023/05/16 21:15:37;;;;;;;4.88;2.88;;;;;;;;;;5019897;28;20180;-53
2023/05/16 21:18:03;;;;;;;5.90;2.72;;;;;;;;;;5013145;28;20184;-53
2023/05/16 21:20:29;;;;;;;5.88;2.47;;;;;;;;;;5010944;28;20216;-53
2023/05/16 21:22:55;;;;;;;9.95;3.50;;;;;;;;;;5015313;28;20622;-53
2023/05/16 21:25:21;;;;;;;12.45;2.90;;;;;;;;;;5013826;28;20184;-52
2023/05/16 21:27:47;;;;;;;5.15;2.33;;;;;;;;;;5009199;28;20200;-52
2023/05/16 21:30:13;;;;;;;3.95;2.35;;;;;;;;;;5027909;28;20192;-53
2023/05/16 21:32:39;;;;;;;4.82;2.70;;;;;;;;;;5015742;28;20188;-53
2023/05/16 21:35:05;;;;;;;5.13;2.20;;;;;;;;;;5012802;28;20184;-52
2023/05/16 21:37:31;;;;;;;6.43;2.58;;;;;;;;;;5029596;28;20231;-53
2023/05/16 21:39:57;;;;;;;5.55;2.92;;;;;;;;;;5009275;28;20220;-53
2023/05/16 21:42:23;;;;;;;5.68;2.10;;;;;;;;;;5030847;28;20184;-53
2023/05/16 21:44:49;;;;;;;3.22;2.20;;;;;;;;;;5014829;28;20172;-53
2023/05/16 21:47:15;;;;;;;3.25;1.98;;;;;;;;;;5016584;28;20548;-53
2023/05/16 21:49:41;;;;;;;5.53;2.50;;;;;;;;;;5017081;28;20557;-53
2023/05/16 21:52:07;;;;;;;3.53;2.08;;;;;;;;;;5012656;28;20263;-52
2023/05/16 21:54:33;;;;;;;4.00;2.10;;;;;;;;;;5016569;28;20311;-52
2023/05/16 21:56:59;;;;;;;5.18;2.20;;;;;;;;;;5032008;28;20194;-52
2023/05/16 21:59:25;;;;;;;4.47;2.20;;;;;;;;;;5031089;28;20283;-52
2023/05/16 22:01:51;;;;;;;4.82;2.20;;;;;;;;;;5015642;28;20529;-52
2023/05/16 22:04:17;;;;;;;4.20;2.00;;;;;;;;;;5030884;28;20176;-52
2023/05/16 22:06:43;;;;;;;5.35;2.00;;;;;;;;;;5015061;28;20207;-52
2023/05/16 22:09:10;;;;;;;4.90;1.90;;;;;;;;;;5028954;28;20247;-52
2023/05/16 22:11:36;;;;;;;3.15;1.60;;;;;;;;;;5011170;28;20442;-52
2023/05/16 22:14:02;;;;;;;4.00;1.88;;;;;;;;;;5013032;28;20201;-52
2023/05/16 22:16:28;;;;;;;3.60;2.05;;;;;;;;;;5017165;28;20203;-52
2023/05/16 22:18:54;;;;;;;3.45;1.95;;;;;;;;;;5016418;28;20211;-52
2023/05/16 22:21:20;;;;;;;2.78;1.65;;;;;;;;;;5028660;28;20702;-52
2023/05/16 22:23:46;;;;;;;4.05;1.83;;;;;;;;;;5030107;28;20177;-52
2023/05/16 22:26:12;;;;;;;4.13;2.00;;;;;;;;;;5009189;28;20181;-52
2023/05/16 22:28:38;;;;;;;2.78;1.83;;;;;;;;;;5014935;28;20183;-52
2023/05/16 22:31:04;;;;;;;6.93;2.17;;;;;;;;;;5009147;28;20518;-52
2023/05/16 22:33:29;;;;;;;2.72;1.85;;;;;;;;;;5026165;28;20172;-52
2023/05/16 22:35:55;;;;;;;2.65;1.63;;;;;;;;;;5014031;28;20189;-53
2023/05/16 22:38:21;;;;;;;4.15;1.85;;;;;;;;;;5011063;28;20271;-53
2023/05/16 22:40:47;;;;;;;2.33;1.77;;;;;;;;;;5034127;28;20611;-53
2023/05/16 22:43:13;;;;;;;2.10;1.50;;;;;;;;;;5014132;28;20250;-53
2023/05/16 22:45:40;;;;;;;2.70;1.50;;;;;;;;;;5014223;28;20561;-52
2023/05/16 22:48:06;;;;;;;2.92;1.80;;;;;;;;;;5011009;28;20177;-52
2023/05/16 22:50:31;;;;;;;3.03;1.70;;;;;;;;;;5032231;28;20784;-52
2023/05/16 22:52:57;;;;;;;3.00;1.52;;;;;;;;;;5007895;28;20188;-52
2023/05/16 22:55:23;;;;;;;2.30;1.38;;;;;;;;;;5007484;28;20180;-52
2023/05/16 22:57:51;;;;;;;2.30;1.50;;;;;;;;;;5026888;28;20188;-52
2023/05/16 23:00:21;;;;;;;1.58;1.48;;;;;;;;;;5014217;28;20243;-52
2023/05/16 23:02:47;;;;;;;3.15;1.88;;;;;;;;;;5035098;28;20237;-52
2023/05/16 23:05:13;;;;;;;1.65;1.40;;;;;;;;;;5029762;28;20270;-52
2023/05/16 23:07:39;;;;;;;2.20;1.52;;;;;;;;;;5014304;28;20255;-52
2023/05/16 23:10:05;;;;;;;2.97;1.55;;;;;;;;;;5030500;28;20188;-53
2023/05/16 23:12:31;;;;;;;2.47;1.42;;;;;;;;;;5011853;28;20184;-53
2023/05/16 23:14:57;;;;;;;2.45;1.20;;;;;;;;;;5013033;28;20195;-52
2023/05/16 23:17:23;;;;;;;2.78;1.40;;;;;;;;;;5026805;28;20215;-52
2023/05/16 23:19:49;;;;;;;2.80;1.38;;;;;;;;;;5021071;28;20469;-52
2023/05/16 23:22:14;;;;;;;3.03;1.42;;;;;;;;;;5007353;28;20192;-53
2023/05/16 23:24:40;;;;;;;2.53;1.55;;;;;;;;;;5014452;28;20180;-53
2023/05/16 23:27:06;;;;;;;1.58;1.42;;;;;;;;;;5011878;28;20192;-52
2023/05/16 23:29:32;;;;;;;2.08;1.40;;;;;;;;;;5014400;28;20184;-52
2023/05/16 23:31:58;;;;;;;1.83;1.40;;;;;;;;;;5013004;28;20196;-52
2023/05/16 23:34:24;;;;;;;1.98;1.48;;;;;;;;;;5028891;28;20208;-52
2023/05/16 23:36:50;;;;;;;2.10;1.30;;;;;;;;;;5014510;28;20491;-52
2023/05/16 23:39:16;;;;;;;2.13;1.20;;;;;;;;;;5015016;28;20250;-52
2023/05/16 23:41:42;;;;;;;1.83;1.23;;;;;;;;;;5010080;28;20180;-52
2023/05/16 23:44:08;;;;;;;1.85;1.25;;;;;;;;;;5030349;28;20184;-52
2023/05/16 23:46:34;;;;;;;2.15;1.20;;;;;;;;;;5014779;28;20218;-52
2023/05/16 23:49:00;;;;;;;1.35;1.08;;;;;;;;;;5014282;28;20181;-52
2023/05/16 23:51:26;;;;;;;1.90;1.30;;;;;;;;;;5011458;28;20184;-53
2023/05/16 23:53:52;;;;;;;2.08;1.17;;;;;;;;;;5029629;28;20177;-53
2023/05/16 23:56:18;;;;;;;1.80;1.25;;;;;;;;;;5014418;28;20208;-53
2023/05/16 23:58:44;;;;;;;1.95;1.08;;;;;;;;;;5015527;28;20227;-53
